createdAt,value
2019-06-08T00:00:45.922Z,76.61
2019-06-08T00:01:45.915Z,77.11
2019-06-08T00:02:45.892Z,77.72
2019-06-08T00:03:45.902Z,77.51
2019-06-08T00:04:45.891Z,77.01
2019-06-08T00:05:45.865Z,76.81
2019-06-08T00:06:45.851Z,76.81
2019-06-08T00:07:45.835Z,77.11
2019-06-08T00:08:45.830Z,77.21
2019-06-08T00:09:45.828Z,77.31
2019-06-08T00:10:45.820Z,77.31
2019-06-08T00:11:45.800Z,77.91
2019-06-08T00:12:45.791Z,77.72
2019-06-08T00:13:45.768Z,77.51
2019-06-08T00:14:45.769Z,78.02
2019-06-08T00:15:45.749Z,77.72
2019-06-08T00:16:45.742Z,77.81
2019-06-08T00:17:45.728Z,77.72
2019-06-08T00:18:45.718Z,77.61
2019-06-08T00:19:45.714Z,77.91
2019-06-08T00:20:45.694Z,77.81
2019-06-08T00:21:45.683Z,77.31
2019-06-08T00:22:45.670Z,77.41
2019-06-08T00:23:45.666Z,77.51
2019-06-08T00:24:45.660Z,77.61
2019-06-08T00:25:45.634Z,77.81
2019-06-08T00:26:45.622Z,78.02
2019-06-08T00:27:45.620Z,78.11
2019-06-08T00:28:45.610Z,77.91
2019-06-08T00:29:45.602Z,77.91
2019-06-08T00:30:45.583Z,77.41
2019-06-08T00:31:45.566Z,77.61
2019-06-08T00:32:45.556Z,77.81
2019-06-08T00:33:45.544Z,77.91
2019-06-08T00:34:45.541Z,77.81
2019-06-08T00:35:45.526Z,77.81
2019-06-08T00:36:45.510Z,77.81
2019-06-08T00:37:45.506Z,78.11
2019-06-08T00:38:45.496Z,77.91
2019-06-08T00:39:45.526Z,77.95
2019-06-08T00:40:45.482Z,78.15
2019-06-08T00:41:45.460Z,78.11
2019-06-08T00:42:45.445Z,78.11
2019-06-08T00:43:45.442Z,77.81
2019-06-08T00:44:45.430Z,77.91
2019-06-08T00:45:45.410Z,79.12
2019-06-08T00:46:45.409Z,78.61
2019-06-08T00:47:48.047Z,78.81
2019-06-08T00:48:45.382Z,79.25
2019-06-08T00:49:45.382Z,78.75
2019-06-08T00:50:45.362Z,78.81
2019-06-08T00:51:45.354Z,78.96
2019-06-08T00:52:45.340Z,78.81
2019-06-08T00:53:45.327Z,79.16
2019-06-08T00:54:45.321Z,78.55
2019-06-08T00:55:45.301Z,78.85
2019-06-08T00:56:45.294Z,78.42
2019-06-08T00:57:45.281Z,78.96
2019-06-08T00:58:45.266Z,79.46
2019-06-08T00:59:45.265Z,79.46
2019-06-08T01:00:45.253Z,79.05
2019-06-08T01:01:45.238Z,79.12
2019-06-08T01:02:45.238Z,78.96
2019-06-08T01:03:45.228Z,80.46
2019-06-08T01:04:45.214Z,79.32
2019-06-08T01:05:45.193Z,79.02
2019-06-08T01:06:45.178Z,79.32
2019-06-08T01:07:45.172Z,79.12
2019-06-08T01:08:45.161Z,79.52
2019-06-08T01:09:45.153Z,79.02
2019-06-08T01:10:45.139Z,78.92
2019-06-08T01:11:45.128Z,78.42
2019-06-08T01:12:45.111Z,78.81
2019-06-08T01:13:45.113Z,78.81
2019-06-08T01:14:45.118Z,78.42
2019-06-08T01:15:45.081Z,78.61
2019-06-08T01:16:45.067Z,78.72
2019-06-08T01:17:45.062Z,78.72
2019-06-08T01:18:45.047Z,79.22
2019-06-08T01:19:45.046Z,78.92
2019-06-08T01:20:45.023Z,78.72
2019-06-08T01:21:45.011Z,78.11
2019-06-08T01:22:45.000Z,78.22
2019-06-08T01:23:44.988Z,78.22
2019-06-08T01:24:44.978Z,78.61
2019-06-08T01:25:44.991Z,78.92
2019-06-08T01:26:44.972Z,78.92
2019-06-08T01:27:44.966Z,78.81
2019-06-08T01:28:44.939Z,79.22
2019-06-08T01:29:44.921Z,78.66
2019-06-08T01:30:44.924Z,78.96
2019-06-08T01:31:44.909Z,78.92
2019-06-08T01:32:44.895Z,78.81
2019-06-08T01:33:44.884Z,78.81
2019-06-08T01:34:44.865Z,78.66
2019-06-08T01:35:44.874Z,78.35
2019-06-08T01:36:44.853Z,78.75
2019-06-08T01:37:44.838Z,78.72
2019-06-08T01:38:44.840Z,78.66
2019-06-08T01:39:44.810Z,78.85
2019-06-08T01:40:44.825Z,78.35
2019-06-08T01:41:44.796Z,79.02
2019-06-08T01:42:44.785Z,79.16
2019-06-08T01:43:44.772Z,79.66
2019-06-08T01:44:44.760Z,79.55
2019-06-08T01:45:44.758Z,79.66
2019-06-08T01:46:44.732Z,80.46
2019-06-08T01:47:44.722Z,79.66
2019-06-08T01:48:44.710Z,79.90
2019-06-08T01:49:44.701Z,79.86
2019-06-08T01:50:44.696Z,80.06
2019-06-08T01:51:44.680Z,79.96
2019-06-08T01:52:44.671Z,79.96
2019-06-08T01:53:44.657Z,79.96
2019-06-08T01:54:44.643Z,79.96
2019-06-08T01:55:44.649Z,80.60
2019-06-08T01:56:44.626Z,79.46
2019-06-08T01:57:44.615Z,79.75
2019-06-08T01:58:44.603Z,79.05
2019-06-08T01:59:44.602Z,79.05
2019-06-08T02:00:44.584Z,78.66
2019-06-08T02:01:44.578Z,79.16
2019-06-08T02:02:44.554Z,78.66
2019-06-08T02:03:44.552Z,78.59
2019-06-08T02:04:44.539Z,78.75
2019-06-08T02:05:44.536Z,78.66
2019-06-08T02:06:44.510Z,78.25
2019-06-08T02:07:44.498Z,76.89
2019-06-08T02:08:44.487Z,77.09
2019-06-08T02:09:44.481Z,76.48
2019-06-08T02:10:44.482Z,76.38
2019-06-08T02:11:44.453Z,76.72
2019-06-08T02:12:44.441Z,76.92
2019-06-08T02:13:44.436Z,76.65
2019-06-08T02:14:44.421Z,76.35
2019-06-08T02:15:44.435Z,76.76
2019-06-08T02:16:44.412Z,76.76
2019-06-08T02:17:44.393Z,77.06
2019-06-08T02:18:50.857Z,75.25
2019-06-08T02:19:45.362Z,74.28
2019-06-08T02:20:44.367Z,74.28
2019-06-08T02:21:44.351Z,74.48
2019-06-08T02:22:44.338Z,74.01
2019-06-08T02:23:44.324Z,74.41
2019-06-08T02:24:44.307Z,74.52
2019-06-08T02:25:44.310Z,74.32
2019-06-08T02:26:44.286Z,74.62
2019-06-08T02:27:44.284Z,74.92
2019-06-08T02:28:44.274Z,74.21
2019-06-08T02:29:44.254Z,74.38
2019-06-08T02:30:44.256Z,74.52
2019-06-08T02:31:47.885Z,74.62
2019-06-08T02:32:44.227Z,74.32
2019-06-08T02:33:44.221Z,74.52
2019-06-08T02:34:44.202Z,74.21
2019-06-08T02:35:44.209Z,74.11
2019-06-08T02:36:44.176Z,74.35
2019-06-08T02:37:44.178Z,75.15
2019-06-08T02:38:44.161Z,74.95
2019-06-08T02:39:44.148Z,75.66
2019-06-08T02:40:44.136Z,74.85
2019-06-08T02:41:44.162Z,74.75
2019-06-08T02:42:44.113Z,74.55
2019-06-08T02:43:44.105Z,74.15
2019-06-08T02:44:44.098Z,74.45
2019-06-08T02:45:44.078Z,74.38
2019-06-08T02:46:44.082Z,74.35
2019-06-08T02:47:44.060Z,72.97
2019-06-08T02:49:02.315Z,72.97
2019-06-08T02:49:45.032Z,72.97
2019-06-08T02:50:44.040Z,74.18
2019-06-08T02:51:44.028Z,74.08
2019-06-08T02:52:44.006Z,74.18
2019-06-08T02:53:43.995Z,74.29
2019-06-08T02:54:43.978Z,74.18
2019-06-08T02:55:43.967Z,74.02
2019-06-08T02:56:43.972Z,73.61
2019-06-08T02:57:43.955Z,73.52
2019-06-08T02:58:43.951Z,74.12
2019-06-08T02:59:43.928Z,73.82
2019-06-08T03:00:43.916Z,74.02
2019-06-08T03:01:43.911Z,74.02
2019-06-08T03:02:43.917Z,74.32
2019-06-08T03:03:43.883Z,74.22
2019-06-08T03:04:43.865Z,74.02
2019-06-08T03:05:43.860Z,74.32
2019-06-08T03:06:43.869Z,74.52
2019-06-08T03:07:43.839Z,74.32
2019-06-08T03:08:44.117Z,74.22
2019-06-08T03:09:43.814Z,74.12
2019-06-08T03:10:43.797Z,74.22
2019-06-08T03:11:43.802Z,74.32
2019-06-08T03:12:43.788Z,74.02
2019-06-08T03:13:43.788Z,74.02
2019-06-08T03:14:43.763Z,73.21
2019-06-08T03:15:43.936Z,73.11
2019-06-08T03:16:43.747Z,72.61
2019-06-08T03:17:43.728Z,72.61
2019-06-08T03:18:43.709Z,72.91
2019-06-08T03:19:43.706Z,72.61
2019-06-08T03:20:43.690Z,72.81
2019-06-08T03:21:43.690Z,72.71
2019-06-08T03:22:44.192Z,72.91
2019-06-08T03:23:43.689Z,72.41
2019-06-08T03:24:44.197Z,72.61
2019-06-08T03:25:51.891Z,72.67
2019-06-08T03:26:44.131Z,72.91
2019-06-08T03:27:43.614Z,72.81
2019-06-08T03:28:44.391Z,73.01
2019-06-08T03:29:44.018Z,72.81
2019-06-08T03:30:52.378Z,73.11
2019-06-08T03:31:54.175Z,73.11
2019-06-08T03:32:50.852Z,73.32
2019-06-08T03:33:53.902Z,72.91
2019-06-08T03:34:54.740Z,72.81
2019-06-08T03:35:56.074Z,73.01
2019-06-08T03:36:54.460Z,72.31
2019-06-08T03:37:44.764Z,70.70
2019-06-08T03:38:44.718Z,70.90
2019-06-08T03:39:45.163Z,70.59
2019-06-08T03:40:45.300Z,70.32
2019-06-08T03:41:45.222Z,69.62
2019-06-08T03:42:43.448Z,69.52
2019-06-08T03:43:43.431Z,69.12
2019-06-08T03:44:45.000Z,69.52
2019-06-08T03:45:45.179Z,69.32
2019-06-08T03:46:44.154Z,69.21
2019-06-08T03:47:45.159Z,69.72
2019-06-08T03:48:45.831Z,70.12
2019-06-08T03:49:54.798Z,69.92
2019-06-08T03:50:46.188Z,70.62
2019-06-08T03:51:46.245Z,71.03
2019-06-08T03:52:46.124Z,70.93
2019-06-08T03:53:45.073Z,72.04
2019-06-08T03:54:45.255Z,73.05
2019-06-08T03:55:45.434Z,74.39
2019-06-08T03:56:44.174Z,72.67
2019-06-08T03:57:44.081Z,72.98
2019-06-08T03:58:44.997Z,72.58
2019-06-08T03:59:45.572Z,71.00
2019-06-08T04:00:44.382Z,71.60
2019-06-08T04:01:43.892Z,73.01
2019-06-08T04:02:44.789Z,73.52
2019-06-08T04:03:43.920Z,73.82
2019-06-08T04:04:43.820Z,73.35
2019-06-08T04:05:44.916Z,71.44
2019-06-08T04:06:43.654Z,72.78
2019-06-08T04:07:44.270Z,72.75
2019-06-08T04:08:46.582Z,72.58
2019-06-08T04:09:43.610Z,73.58
2019-06-08T04:10:44.338Z,74.40
2019-06-08T04:11:44.984Z,74.60
2019-06-08T04:12:44.216Z,73.45
2019-06-08T04:13:44.647Z,74.29
2019-06-08T04:14:44.559Z,74.49
2019-06-08T04:15:44.623Z,74.16
2019-06-08T04:16:44.478Z,74.36
2019-06-08T04:17:44.144Z,74.26
2019-06-08T04:18:44.525Z,75.07
2019-06-08T04:20:03.040Z,74.26
2019-06-08T04:20:45.778Z,73.65
2019-06-08T04:21:44.376Z,73.32
2019-06-08T04:22:44.723Z,73.01
2019-06-08T04:23:44.908Z,72.85
2019-06-08T04:24:44.717Z,73.22
2019-06-08T04:25:44.797Z,73.11
2019-06-08T04:26:45.014Z,73.45
2019-06-08T04:27:44.615Z,74.32
2019-06-08T04:28:44.592Z,74.05
2019-06-08T04:29:43.999Z,74.12
2019-06-08T04:30:44.776Z,74.22
2019-06-08T04:31:43.827Z,74.12
2019-06-08T04:32:43.019Z,74.22
2019-06-08T04:33:44.286Z,72.81
2019-06-08T04:34:43.045Z,72.81
2019-06-08T04:35:44.830Z,71.91
2019-06-08T04:36:44.032Z,73.15
2019-06-08T04:37:44.654Z,73.42
2019-06-08T04:38:43.298Z,72.64
2019-06-08T04:39:44.497Z,74.36
2019-06-08T04:40:43.531Z,74.32
2019-06-08T04:41:44.846Z,74.46
2019-06-08T04:42:44.397Z,74.05
2019-06-08T04:43:44.522Z,74.02
2019-06-08T04:44:44.463Z,74.02
2019-06-08T04:45:44.753Z,74.12
2019-06-08T04:46:43.710Z,74.32
2019-06-08T04:47:43.630Z,73.01
2019-06-08T04:48:43.481Z,72.61
2019-06-08T04:49:43.461Z,71.13
2019-06-08T04:50:43.496Z,71.44
2019-06-08T04:51:42.675Z,71.03
2019-06-08T04:52:42.737Z,70.02
2019-06-08T04:53:43.193Z,70.42
2019-06-08T04:54:42.708Z,70.42
2019-06-08T04:55:43.294Z,71.47
2019-06-08T04:56:42.795Z,71.13
2019-06-08T04:57:43.356Z,71.84
2019-06-08T04:58:45.982Z,71.23
2019-06-08T04:59:43.890Z,71.13
2019-06-08T05:00:43.983Z,71.84
2019-06-08T05:01:43.022Z,71.03
2019-06-08T05:02:44.701Z,71.64
2019-06-08T05:03:43.275Z,71.30
2019-06-08T05:04:43.228Z,71.03
2019-06-08T05:05:43.316Z,70.69
2019-06-08T05:06:42.999Z,71.00
2019-06-08T05:07:43.889Z,71.03
2019-06-08T05:08:43.090Z,70.93
2019-06-08T05:09:43.009Z,71.53
2019-06-08T05:10:43.308Z,71.73
2019-06-08T05:11:43.252Z,71.73
2019-06-08T05:12:43.402Z,71.40
2019-06-08T05:13:43.308Z,71.50
2019-06-08T05:14:43.076Z,71.13
2019-06-08T05:15:43.256Z,70.12
2019-06-08T05:16:43.169Z,70.49
2019-06-08T05:17:43.289Z,70.42
2019-06-08T05:18:43.158Z,71.03
2019-06-08T05:19:43.459Z,70.69
2019-06-08T05:20:45.290Z,70.39
2019-06-08T05:21:43.521Z,70.09
2019-06-08T05:22:43.636Z,69.99
2019-06-08T05:23:43.385Z,68.30
2019-06-08T05:24:43.502Z,68.10
2019-06-08T05:25:43.117Z,68.61
2019-06-08T05:26:43.565Z,68.48
2019-06-08T05:27:43.352Z,68.10
2019-06-08T05:28:43.174Z,68.41
2019-06-08T05:29:43.250Z,68.88
2019-06-08T05:30:43.237Z,69.18
2019-06-08T05:31:43.515Z,68.48
2019-06-08T05:32:43.563Z,69.42
2019-06-08T05:33:43.405Z,69.01
2019-06-08T05:34:43.369Z,69.55
2019-06-08T05:35:43.379Z,69.35
2019-06-08T05:36:43.298Z,69.42
2019-06-08T05:37:43.569Z,69.15
2019-06-08T05:38:43.397Z,69.75
2019-06-08T05:39:43.379Z,69.72
2019-06-08T05:40:42.152Z,69.31
2019-06-08T05:41:42.125Z,69.11
2019-06-08T05:42:42.813Z,68.17
2019-06-08T05:43:42.107Z,68.21
2019-06-08T05:44:42.090Z,68.27
2019-06-08T05:45:42.076Z,67.77
2019-06-08T05:46:42.067Z,67.50
2019-06-08T05:47:42.052Z,67.70
2019-06-08T05:48:42.056Z,67.10
2019-06-08T05:49:42.032Z,67.30
2019-06-08T05:50:56.813Z,67.50
2019-06-08T05:51:43.762Z,66.99
2019-06-08T05:52:42.001Z,67.30
2019-06-08T05:53:42.000Z,67.30
2019-06-08T05:54:41.974Z,67.40
2019-06-08T05:55:41.961Z,66.59
2019-06-08T05:56:42.017Z,67.10
2019-06-08T05:57:42.165Z,67.30
2019-06-08T05:58:41.943Z,67.77
2019-06-08T05:59:42.112Z,67.77
2019-06-08T06:00:42.203Z,67.36
2019-06-08T06:01:42.483Z,66.99
2019-06-08T06:02:42.324Z,67.16
2019-06-08T06:03:42.291Z,67.47
2019-06-08T06:04:42.461Z,67.16
2019-06-08T06:05:42.417Z,67.27
2019-06-08T06:06:42.400Z,67.07
2019-06-08T06:07:42.671Z,66.36
2019-06-08T06:08:42.490Z,65.95
2019-06-08T06:09:42.991Z,66.16
2019-06-08T06:10:42.880Z,65.55
2019-06-08T06:11:42.900Z,65.55
2019-06-08T06:12:42.977Z,64.81
2019-06-08T06:13:42.709Z,65.22
2019-06-08T06:14:42.793Z,64.81
2019-06-08T06:15:42.979Z,63.81
2019-06-08T06:16:43.013Z,63.40
2019-06-08T06:17:43.781Z,63.47
2019-06-08T06:18:42.846Z,62.70
2019-06-08T06:19:42.909Z,62.97
2019-06-08T06:20:43.254Z,62.70
2019-06-08T06:21:42.979Z,62.26
2019-06-08T06:22:42.389Z,62.26
2019-06-08T06:23:41.659Z,61.96
2019-06-08T06:24:43.317Z,61.13
2019-06-08T06:25:41.636Z,61.13
2019-06-08T06:26:41.620Z,61.23
2019-06-08T06:27:41.602Z,61.33
2019-06-08T06:28:41.597Z,60.49
2019-06-08T06:29:41.592Z,60.19
2019-06-08T06:30:41.635Z,59.59
2019-06-08T06:31:41.734Z,58.58
2019-06-08T06:32:41.816Z,58.98
2019-06-08T06:33:41.991Z,59.08
2019-06-08T06:34:42.025Z,58.98
2019-06-08T06:35:41.734Z,59.19
2019-06-08T06:36:41.742Z,59.08
2019-06-08T06:37:41.886Z,59.48
2019-06-08T06:38:41.922Z,59.39
2019-06-08T06:39:41.925Z,59.48
2019-06-08T06:40:41.912Z,58.98
2019-06-08T06:41:41.891Z,58.25
2019-06-08T06:42:42.066Z,57.98
2019-06-08T06:43:42.232Z,57.68
2019-06-08T06:44:42.057Z,58.48
2019-06-08T06:45:41.869Z,58.78
2019-06-08T06:46:41.841Z,57.98
2019-06-08T06:47:42.211Z,58.48
2019-06-08T06:48:42.059Z,57.65
2019-06-08T06:49:42.412Z,57.48
2019-06-08T06:50:42.262Z,57.88
2019-06-08T06:51:42.339Z,57.04
2019-06-08T06:52:42.764Z,57.45
2019-06-08T06:53:42.667Z,57.17
2019-06-08T06:54:42.685Z,56.44
2019-06-08T06:55:41.313Z,57.07
2019-06-08T06:56:41.296Z,56.27
2019-06-08T06:57:41.277Z,57.07
2019-06-08T06:58:41.280Z,56.57
2019-06-08T06:59:41.272Z,56.16
2019-06-08T07:00:41.251Z,57.04
2019-06-08T07:01:41.236Z,55.33
2019-06-08T07:02:41.222Z,54.80
2019-06-08T07:03:41.209Z,55.11
2019-06-08T07:04:41.215Z,54.50
2019-06-08T07:05:41.193Z,53.60
2019-06-08T07:06:41.195Z,52.97
2019-06-08T07:07:41.167Z,52.87
2019-06-08T07:08:42.037Z,52.37
2019-06-08T07:09:41.158Z,52.87
2019-06-08T07:10:41.134Z,52.57
2019-06-08T07:11:41.129Z,52.24
2019-06-08T07:12:41.111Z,52.34
2019-06-08T07:13:41.100Z,50.84
2019-06-08T07:14:41.101Z,51.64
2019-06-08T07:15:41.978Z,51.56
2019-06-08T07:16:41.072Z,52.37
2019-06-08T07:17:41.055Z,51.86
2019-06-08T07:18:41.051Z,52.06
2019-06-08T07:19:41.061Z,52.67
2019-06-08T07:20:41.027Z,53.07
2019-06-08T07:21:42.177Z,52.87
2019-06-08T07:22:41.006Z,52.87
2019-06-08T07:23:40.993Z,53.47
2019-06-08T07:24:40.992Z,53.57
2019-06-08T07:25:40.965Z,53.47
2019-06-08T07:26:40.959Z,53.37
2019-06-08T07:27:40.957Z,53.47
2019-06-08T07:28:40.937Z,53.30
2019-06-08T07:29:40.948Z,53.90
2019-06-08T07:30:40.917Z,53.30
2019-06-08T07:31:40.904Z,53.37
2019-06-08T07:32:40.896Z,52.77
2019-06-08T07:33:40.877Z,53.47
2019-06-08T07:34:41.304Z,52.67
2019-06-08T07:35:40.881Z,52.94
2019-06-08T07:36:40.859Z,52.74
2019-06-08T07:37:40.840Z,53.05
2019-06-08T07:38:40.828Z,53.05
2019-06-08T07:39:40.817Z,53.14
2019-06-08T07:40:40.814Z,53.42
2019-06-08T07:41:40.788Z,54.13
2019-06-08T07:42:40.777Z,53.52
2019-06-08T07:43:40.773Z,53.34
2019-06-08T07:44:40.756Z,54.25
2019-06-08T07:45:40.772Z,53.75
2019-06-08T07:46:40.732Z,52.94
2019-06-08T07:47:40.729Z,54.15
2019-06-08T07:48:40.717Z,54.58
2019-06-08T07:49:40.714Z,54.88
2019-06-08T07:50:40.711Z,54.78
2019-06-08T07:51:40.705Z,55.08
2019-06-08T07:52:40.670Z,55.58
2019-06-08T07:53:40.657Z,54.38
2019-06-08T07:54:40.653Z,53.37
2019-06-08T07:55:40.653Z,54.30
2019-06-08T07:56:40.630Z,54.00
2019-06-08T07:57:40.633Z,54.50
2019-06-08T07:58:40.604Z,54.30
2019-06-08T07:59:40.597Z,54.40
2019-06-08T08:00:40.595Z,53.80
2019-06-08T08:01:40.573Z,53.09
2019-06-08T08:02:40.568Z,53.30
2019-06-08T08:03:40.560Z,53.70
2019-06-08T08:04:40.535Z,54.33
2019-06-08T08:05:40.531Z,54.40
2019-06-08T08:06:40.515Z,54.60
2019-06-08T08:07:40.501Z,54.60
2019-06-08T08:08:40.498Z,54.50
2019-06-08T08:09:40.486Z,54.40
2019-06-08T08:10:40.483Z,55.11
2019-06-08T08:11:40.457Z,53.22
2019-06-08T08:12:40.446Z,53.00
2019-06-08T08:13:40.448Z,52.72
2019-06-08T08:14:40.425Z,53.42
2019-06-08T08:15:40.420Z,53.42
2019-06-08T08:16:40.414Z,53.60
2019-06-08T08:17:40.397Z,52.59
2019-06-08T08:18:40.385Z,52.89
2019-06-08T08:19:40.388Z,52.89
2019-06-08T08:20:40.368Z,53.20
2019-06-08T08:21:40.948Z,53.50
2019-06-08T08:22:40.336Z,53.50
2019-06-08T08:23:40.326Z,53.09
2019-06-08T08:24:40.311Z,52.69
2019-06-08T08:25:40.318Z,53.02
2019-06-08T08:26:40.294Z,52.92
2019-06-08T08:27:40.281Z,52.92
2019-06-08T08:28:40.286Z,53.12
2019-06-08T08:29:40.256Z,53.32
2019-06-08T08:30:40.253Z,53.63
2019-06-08T08:31:40.233Z,53.02
2019-06-08T08:32:40.227Z,52.72
2019-06-08T08:33:40.214Z,52.92
2019-06-08T08:34:40.218Z,53.05
2019-06-08T08:35:40.211Z,52.64
2019-06-08T08:36:40.180Z,52.94
2019-06-08T08:37:40.173Z,52.84
2019-06-08T08:38:41.055Z,52.74
2019-06-08T08:39:40.145Z,52.94
2019-06-08T08:40:40.163Z,52.94
2019-06-08T08:41:40.123Z,53.25
2019-06-08T08:42:40.109Z,53.14
2019-06-08T08:43:40.103Z,52.82
2019-06-08T08:44:40.115Z,53.25
2019-06-08T08:45:40.084Z,53.14
2019-06-08T08:46:40.079Z,53.14
2019-06-08T08:47:40.051Z,53.05
2019-06-08T08:48:40.042Z,52.84
2019-06-08T08:49:40.039Z,52.94
2019-06-08T08:50:40.027Z,53.45
2019-06-08T08:51:40.025Z,53.65
2019-06-08T08:52:41.080Z,53.52
2019-06-08T08:53:39.996Z,52.84
2019-06-08T08:54:42.654Z,52.84
2019-06-08T08:55:39.979Z,53.12
2019-06-08T08:56:39.991Z,52.84
2019-06-08T08:57:41.547Z,53.05
2019-06-08T08:58:39.952Z,53.25
2019-06-08T08:59:39.926Z,52.87
2019-06-08T09:00:41.137Z,53.47
2019-06-08T09:01:40.014Z,53.25
2019-06-08T09:02:39.893Z,52.47
2019-06-08T09:03:39.897Z,53.07
2019-06-08T09:04:39.875Z,52.67
2019-06-08T09:05:39.873Z,52.87
2019-06-08T09:06:39.864Z,52.87
2019-06-08T09:07:39.872Z,52.77
2019-06-08T09:08:39.827Z,53.05
2019-06-08T09:09:39.847Z,53.55
2019-06-08T09:10:39.808Z,52.74
2019-06-08T09:11:41.271Z,53.22
2019-06-08T09:12:39.781Z,52.82
2019-06-08T09:13:39.774Z,53.12
2019-06-08T09:14:41.533Z,52.42
2019-06-08T09:15:39.749Z,52.22
2019-06-08T09:16:39.771Z,52.11
2019-06-08T09:17:39.739Z,52.51
2019-06-08T09:18:39.717Z,52.72
2019-06-08T09:19:39.712Z,53.12
2019-06-08T09:20:39.695Z,52.84
2019-06-08T09:21:39.682Z,53.34
2019-06-08T09:22:52.449Z,53.05
2019-06-08T09:23:40.661Z,53.32
2019-06-08T09:24:39.655Z,53.12
2019-06-08T09:25:40.635Z,53.12
2019-06-08T09:26:39.622Z,52.92
2019-06-08T09:27:39.622Z,52.94
2019-06-08T09:28:39.620Z,53.55
2019-06-08T09:29:39.597Z,52.84
2019-06-08T09:30:39.590Z,52.84
2019-06-08T09:31:39.574Z,53.05
2019-06-08T09:32:39.599Z,52.74
2019-06-08T09:33:39.545Z,52.94
2019-06-08T09:34:39.541Z,52.44
2019-06-08T09:35:39.523Z,52.87
2019-06-08T09:36:40.802Z,53.17
2019-06-08T09:37:39.511Z,52.64
2019-06-08T09:38:39.490Z,53.14
2019-06-08T09:39:39.477Z,52.84
2019-06-08T09:40:39.472Z,52.44
2019-06-08T09:41:39.461Z,52.34
2019-06-08T09:42:39.474Z,52.14
2019-06-08T09:43:39.454Z,52.01
2019-06-08T09:44:39.429Z,51.61
2019-06-08T09:45:39.435Z,50.81
2019-06-08T09:46:39.410Z,50.81
2019-06-08T09:47:39.404Z,51.11
2019-06-08T09:48:39.386Z,51.41
2019-06-08T09:49:39.367Z,50.81
2019-06-08T09:50:39.366Z,50.81
2019-06-08T09:51:39.355Z,50.31
2019-06-08T09:52:41.399Z,50.73
2019-06-08T09:53:41.586Z,50.81
2019-06-08T09:54:39.324Z,51.61
2019-06-08T09:55:41.413Z,51.11
2019-06-08T09:56:39.299Z,50.51
2019-06-08T09:57:39.446Z,50.73
2019-06-08T09:58:39.436Z,50.83
2019-06-08T09:59:39.365Z,51.34
2019-06-08T10:00:39.273Z,50.83
2019-06-08T10:01:39.241Z,50.83
2019-06-08T10:02:39.261Z,51.14
2019-06-08T10:03:39.424Z,51.54
2019-06-08T10:04:39.199Z,51.23
2019-06-08T10:05:39.192Z,51.34
2019-06-08T10:06:40.684Z,51.34
2019-06-08T10:07:39.192Z,51.66
2019-06-08T10:08:39.158Z,50.85
2019-06-08T10:09:39.151Z,51.26
2019-06-08T10:10:39.154Z,51.36
2019-06-08T10:11:39.126Z,51.97
2019-06-08T10:12:41.144Z,52.06
2019-06-08T10:13:42.955Z,51.86
2019-06-08T10:14:39.107Z,52.14
2019-06-08T10:15:39.091Z,51.64
2019-06-08T10:16:39.075Z,50.93
2019-06-08T10:17:39.116Z,51.41
2019-06-08T10:18:39.052Z,51.11
2019-06-08T10:19:39.040Z,50.93
2019-06-08T10:20:39.026Z,50.91
2019-06-08T10:21:42.838Z,50.81
2019-06-08T10:22:39.019Z,51.23
2019-06-08T10:23:41.588Z,51.64
2019-06-08T10:24:41.496Z,51.73
2019-06-08T10:25:38.979Z,51.54
2019-06-08T10:26:38.962Z,51.54
2019-06-08T10:27:38.956Z,52.44
2019-06-08T10:28:39.124Z,52.11
2019-06-08T10:29:38.921Z,52.11
2019-06-08T10:30:38.913Z,51.14
2019-06-08T10:31:43.386Z,51.11
2019-06-08T10:32:39.919Z,51.21
2019-06-08T10:33:40.542Z,51.03
2019-06-08T10:34:38.893Z,51.16
2019-06-08T10:35:38.866Z,51.64
2019-06-08T10:36:38.856Z,51.64
2019-06-08T10:37:38.837Z,51.23
2019-06-08T10:38:41.219Z,51.43
2019-06-08T10:39:38.815Z,52.24
2019-06-08T10:40:38.815Z,52.04
2019-06-08T10:41:38.985Z,52.24
2019-06-08T10:42:40.230Z,51.64
2019-06-08T10:43:38.791Z,51.71
2019-06-08T10:44:38.755Z,51.23
2019-06-08T10:45:38.751Z,51.21
2019-06-08T10:46:40.608Z,50.91
2019-06-08T10:47:38.733Z,50.73
2019-06-08T10:48:38.721Z,50.63
2019-06-08T10:49:38.705Z,50.53
2019-06-08T10:50:38.698Z,50.43
2019-06-08T10:51:40.818Z,50.73
2019-06-08T10:52:39.227Z,50.53
2019-06-08T10:53:52.008Z,50.51
2019-06-08T10:54:39.647Z,50.71
2019-06-08T10:55:40.906Z,50.08
2019-06-08T10:56:38.731Z,49.37
2019-06-08T10:57:38.612Z,49.07
2019-06-08T10:58:38.614Z,48.97
2019-06-08T10:59:40.291Z,48.97
2019-06-08T11:00:38.885Z,49.48
2019-06-08T11:01:38.708Z,48.97
2019-06-08T11:02:40.723Z,47.92
2019-06-08T11:03:38.922Z,47.58
2019-06-08T11:04:39.208Z,46.93
2019-06-08T11:05:38.529Z,44.34
2019-06-08T11:06:40.231Z,42.11
2019-06-08T11:07:38.506Z,38.82
2019-06-08T11:08:39.003Z,38.91
2019-06-08T11:09:38.491Z,36.43
2019-06-08T11:10:38.469Z,35.29
2019-06-08T11:11:38.509Z,34.38
2019-06-08T11:12:38.455Z,34.36
2019-06-08T11:13:38.452Z,31.60
2019-06-08T11:14:40.751Z,31.19
2019-06-08T11:15:38.423Z,30.17
2019-06-08T11:16:38.671Z,29.76
2019-06-08T11:17:38.399Z,30.04
2019-06-08T11:18:38.415Z,30.31
2019-06-08T11:19:38.397Z,28.52
2019-06-08T11:20:38.379Z,26.93
2019-06-08T11:21:38.712Z,28.72
2019-06-08T11:22:38.386Z,28.72
2019-06-08T11:23:38.459Z,31.32
2019-06-08T11:24:38.862Z,33.65
2019-06-08T11:25:38.321Z,34.66
2019-06-08T11:26:40.371Z,35.29
2019-06-08T11:27:38.804Z,36.12
2019-06-08T11:28:38.431Z,37.05
2019-06-08T11:29:38.562Z,37.38
2019-06-08T11:30:38.393Z,37.90
2019-06-08T11:31:39.220Z,38.32
2019-06-08T11:32:38.476Z,39.04
2019-06-08T11:33:39.046Z,39.46
2019-06-08T11:34:38.245Z,38.72
2019-06-08T11:35:38.418Z,36.54
2019-06-08T11:36:39.370Z,36.47
2019-06-08T11:37:38.733Z,37.02
2019-06-08T11:38:38.312Z,36.04
2019-06-08T11:39:38.383Z,34.96
2019-06-08T11:40:38.178Z,32.84
2019-06-08T11:41:38.152Z,33.69
2019-06-08T11:42:38.778Z,34.00
2019-06-08T11:43:38.279Z,32.56
2019-06-08T11:44:39.013Z,32.97
2019-06-08T11:45:38.130Z,33.72
2019-06-08T11:46:38.799Z,32.93
2019-06-08T11:47:39.097Z,31.88
2019-06-08T11:48:41.344Z,29.38
2019-06-08T11:49:38.089Z,29.07
2019-06-08T11:50:41.561Z,27.46
2019-06-08T11:51:38.115Z,27.41
2019-06-08T11:52:38.303Z,28.97
2019-06-08T11:53:38.547Z,29.86
2019-06-08T11:54:41.015Z,28.44
2019-06-08T11:55:38.482Z,29.30
2019-06-08T11:56:40.282Z,27.09
2019-06-08T11:57:40.497Z,28.09
2019-06-08T11:58:38.553Z,27.27
2019-06-08T11:59:37.980Z,26.56
2019-06-08T12:00:37.969Z,26.37
2019-06-08T12:01:37.954Z,27.70
2019-06-08T12:02:38.364Z,26.14
2019-06-08T12:03:38.753Z,26.18
2019-06-08T12:04:38.436Z,27.54
2019-06-08T12:05:37.918Z,29.77
2019-06-08T12:06:37.896Z,31.19
2019-06-08T12:07:38.234Z,31.92
2019-06-08T12:08:38.151Z,32.03
2019-06-08T12:09:37.882Z,32.14
2019-06-08T12:10:38.228Z,32.23
2019-06-08T12:11:38.265Z,32.75
2019-06-08T12:12:38.467Z,32.56
2019-06-08T12:13:37.830Z,34.09
2019-06-08T12:14:40.550Z,34.30
2019-06-08T12:15:38.569Z,34.31
2019-06-08T12:16:37.960Z,34.51
2019-06-08T12:17:37.791Z,34.41
2019-06-08T12:18:40.056Z,34.01
2019-06-08T12:19:37.886Z,34.93
2019-06-08T12:20:37.790Z,35.51
2019-06-08T12:21:37.738Z,34.19
2019-06-08T12:22:40.060Z,32.98
2019-06-08T12:23:37.726Z,32.46
2019-06-08T12:24:41.890Z,32.28
2019-06-08T12:25:38.071Z,31.79
2019-06-08T12:26:37.689Z,33.00
2019-06-08T12:27:40.107Z,32.40
2019-06-08T12:28:38.139Z,31.90
2019-06-08T12:29:37.656Z,32.08
2019-06-08T12:30:38.472Z,32.05
2019-06-08T12:31:37.866Z,31.75
2019-06-08T12:32:37.618Z,31.02
2019-06-08T12:33:39.148Z,31.09
2019-06-08T12:34:38.340Z,27.94
2019-06-08T12:35:37.602Z,26.50
2019-06-08T12:36:37.653Z,26.86
2019-06-08T12:37:38.674Z,26.43
2019-06-08T12:38:38.079Z,25.10
2019-06-08T12:39:38.773Z,24.52
2019-06-08T12:40:37.847Z,25.12
2019-06-08T12:41:37.859Z,25.43
2019-06-08T12:42:38.149Z,24.62
2019-06-08T12:43:38.547Z,24.69
2019-06-08T12:44:38.305Z,23.88
2019-06-08T12:45:38.116Z,23.40
2019-06-08T12:46:40.872Z,24.08
2019-06-08T12:47:38.161Z,23.38
2019-06-08T12:48:38.493Z,23.57
2019-06-08T12:49:40.065Z,23.54
2019-06-08T12:50:38.678Z,22.55
2019-06-08T12:51:37.439Z,22.45
2019-06-08T12:52:39.296Z,21.84